sensor_id;sensor_type;location;lat;lon;timestamp;P1;durP1;ratioP1;P2;durP2;ratioP2
53644;SDS011;39547;45.554;12.068;2023-04-07T00:04:44;35.28;;;21.67;;
53644;SDS011;39547;45.554;12.068;2023-04-07T00:10:46;37.78;;;22.40;;
53644;SDS011;39547;45.554;12.068;2023-04-07T00:16:47;38.90;;;22.52;;
53644;SDS011;39547;45.554;12.068;2023-04-07T00:22:49;34.33;;;20.55;;
53644;SDS011;39547;45.554;12.068;2023-04-07T00:28:50;35.00;;;19.45;;
53644;SDS011;39547;45.554;12.068;2023-04-07T00:34:52;32.90;;;18.00;;
53644;SDS011;39547;45.554;12.068;2023-04-07T00:40:57;31.60;;;18.40;;
53644;SDS011;39547;45.554;12.068;2023-04-07T00:46:59;37.10;;;20.13;;
53644;SDS011;39547;45.554;12.068;2023-04-07T00:53:01;34.63;;;19.52;;
53644;SDS011;39547;45.554;12.068;2023-04-07T00:59:03;30.92;;;17.95;;
53644;SDS011;39547;45.554;12.068;2023-04-07T01:05:12;37.58;;;21.52;;
53644;SDS011;39547;45.554;12.068;2023-04-07T01:11:34;32.97;;;18.83;;
53644;SDS011;39547;45.554;12.068;2023-04-07T01:17:47;30.08;;;17.05;;
53644;SDS011;39547;45.554;12.068;2023-04-07T01:30:00;35.42;;;19.25;;
53644;SDS011;39547;45.554;12.068;2023-04-07T01:36:04;36.85;;;20.65;;
53644;SDS011;39547;45.554;12.068;2023-04-07T01:42:07;33.23;;;19.83;;
53644;SDS011;39547;45.554;12.068;2023-04-07T01:48:10;34.53;;;19.48;;
53644;SDS011;39547;45.554;12.068;2023-04-07T01:54:13;39.88;;;21.83;;
53644;SDS011;39547;45.554;12.068;2023-04-07T02:00:15;34.22;;;19.52;;
53644;SDS011;39547;45.554;12.068;2023-04-07T02:06:26;38.35;;;21.88;;
53644;SDS011;39547;45.554;12.068;2023-04-07T02:12:32;36.60;;;20.85;;
53644;SDS011;39547;45.554;12.068;2023-04-07T02:18:44;37.67;;;20.98;;
53644;SDS011;39547;45.554;12.068;2023-04-07T02:24:47;33.13;;;19.35;;
53644;SDS011;39547;45.554;12.068;2023-04-07T02:30:48;40.45;;;22.23;;
53644;SDS011;39547;45.554;12.068;2023-04-07T02:36:50;34.50;;;20.63;;
53644;SDS011;39547;45.554;12.068;2023-04-07T02:42:51;43.47;;;24.90;;
53644;SDS011;39547;45.554;12.068;2023-04-07T02:48:53;40.28;;;22.65;;
53644;SDS011;39547;45.554;12.068;2023-04-07T02:54:54;38.90;;;21.63;;
53644;SDS011;39547;45.554;12.068;2023-04-07T03:01:00;43.60;;;23.90;;
53644;SDS011;39547;45.554;12.068;2023-04-07T03:07:05;46.10;;;25.77;;
53644;SDS011;39547;45.554;12.068;2023-04-07T03:13:07;45.63;;;26.52;;
53644;SDS011;39547;45.554;12.068;2023-04-07T03:19:09;49.10;;;27.30;;
53644;SDS011;39547;45.554;12.068;2023-04-07T03:25:16;44.83;;;25.65;;
53644;SDS011;39547;45.554;12.068;2023-04-07T03:31:18;47.83;;;26.80;;
53644;SDS011;39547;45.554;12.068;2023-04-07T03:37:21;45.47;;;25.55;;
53644;SDS011;39547;45.554;12.068;2023-04-07T03:43:23;42.53;;;24.05;;
53644;SDS011;39547;45.554;12.068;2023-04-07T03:49:24;41.17;;;23.55;;
53644;SDS011;39547;45.554;12.068;2023-04-07T03:55:28;42.53;;;21.70;;
53644;SDS011;39547;45.554;12.068;2023-04-07T04:01:35;39.88;;;22.50;;
53644;SDS011;39547;45.554;12.068;2023-04-07T04:07:49;36.45;;;19.77;;
53644;SDS011;39547;45.554;12.068;2023-04-07T04:13:54;38.00;;;21.33;;
53644;SDS011;39547;45.554;12.068;2023-04-07T04:19:57;41.58;;;22.38;;
53644;SDS011;39547;45.554;12.068;2023-04-07T04:32:16;35.00;;;19.52;;
53644;SDS011;39547;45.554;12.068;2023-04-07T04:38:18;38.25;;;20.63;;
53644;SDS011;39547;45.554;12.068;2023-04-07T04:44:37;39.97;;;20.55;;
53644;SDS011;39547;45.554;12.068;2023-04-07T04:50:40;38.53;;;20.77;;
53644;SDS011;39547;45.554;12.068;2023-04-07T04:56:46;37.97;;;19.38;;
53644;SDS011;39547;45.554;12.068;2023-04-07T05:02:48;34.20;;;17.85;;
53644;SDS011;39547;45.554;12.068;2023-04-07T05:08:50;34.67;;;18.30;;
53644;SDS011;39547;45.554;12.068;2023-04-07T05:14:55;38.15;;;18.70;;
53644;SDS011;39547;45.554;12.068;2023-04-07T05:20:57;33.10;;;16.42;;
53644;SDS011;39547;45.554;12.068;2023-04-07T05:27:01;34.88;;;17.42;;
53644;SDS011;39547;45.554;12.068;2023-04-07T05:33:03;35.45;;;17.95;;
53644;SDS011;39547;45.554;12.068;2023-04-07T05:45:22;31.40;;;16.20;;
53644;SDS011;39547;45.554;12.068;2023-04-07T05:51:24;37.17;;;18.48;;
53644;SDS011;39547;45.554;12.068;2023-04-07T05:57:29;30.17;;;15.23;;
53644;SDS011;39547;45.554;12.068;2023-04-07T06:03:33;36.73;;;18.77;;
53644;SDS011;39547;45.554;12.068;2023-04-07T06:09:43;32.28;;;15.82;;
53644;SDS011;39547;45.554;12.068;2023-04-07T06:15:45;32.65;;;15.95;;
53644;SDS011;39547;45.554;12.068;2023-04-07T06:21:47;30.30;;;16.45;;
53644;SDS011;39547;45.554;12.068;2023-04-07T06:27:49;30.77;;;14.98;;
53644;SDS011;39547;45.554;12.068;2023-04-07T06:33:50;27.30;;;13.88;;
53644;SDS011;39547;45.554;12.068;2023-04-07T06:39:52;25.92;;;13.10;;
53644;SDS011;39547;45.554;12.068;2023-04-07T06:45:54;31.42;;;16.17;;
53644;SDS011;39547;45.554;12.068;2023-04-07T06:51:55;29.23;;;14.23;;
53644;SDS011;39547;45.554;12.068;2023-04-07T06:57:57;27.40;;;15.27;;
53644;SDS011;39547;45.554;12.068;2023-04-07T07:03:58;27.35;;;14.45;;
53644;SDS011;39547;45.554;12.068;2023-04-07T07:10:01;31.77;;;15.05;;
53644;SDS011;39547;45.554;12.068;2023-04-07T07:16:03;27.38;;;14.57;;
53644;SDS011;39547;45.554;12.068;2023-04-07T07:22:05;28.60;;;14.07;;
53644;SDS011;39547;45.554;12.068;2023-04-07T07:28:06;25.10;;;12.38;;
53644;SDS011;39547;45.554;12.068;2023-04-07T07:34:09;26.58;;;12.65;;
53644;SDS011;39547;45.554;12.068;2023-04-07T07:40:11;24.17;;;12.32;;
53644;SDS011;39547;45.554;12.068;2023-04-07T07:46:12;25.27;;;12.80;;
53644;SDS011;39547;45.554;12.068;2023-04-07T07:52:14;24.73;;;11.88;;
53644;SDS011;39547;45.554;12.068;2023-04-07T07:58:16;23.42;;;11.85;;
53644;SDS011;39547;45.554;12.068;2023-04-07T08:04:17;25.42;;;12.60;;
53644;SDS011;39547;45.554;12.068;2023-04-07T08:10:19;20.40;;;10.38;;
53644;SDS011;39547;45.554;12.068;2023-04-07T08:16:21;34.28;;;16.75;;
53644;SDS011;39547;45.554;12.068;2023-04-07T08:22:23;26.20;;;14.13;;
53644;SDS011;39547;45.554;12.068;2023-04-07T08:28:25;19.95;;;9.82;;
53644;SDS011;39547;45.554;12.068;2023-04-07T08:34:27;26.83;;;13.93;;
53644;SDS011;39547;45.554;12.068;2023-04-07T08:40:28;25.35;;;14.07;;
53644;SDS011;39547;45.554;12.068;2023-04-07T08:46:30;23.40;;;11.85;;
53644;SDS011;39547;45.554;12.068;2023-04-07T08:52:43;26.03;;;14.33;;
53644;SDS011;39547;45.554;12.068;2023-04-07T08:58:48;22.93;;;11.57;;
53644;SDS011;39547;45.554;12.068;2023-04-07T09:04:51;21.25;;;10.82;;
53644;SDS011;39547;45.554;12.068;2023-04-07T09:10:53;27.35;;;14.30;;
53644;SDS011;39547;45.554;12.068;2023-04-07T09:16:54;28.27;;;15.23;;
53644;SDS011;39547;45.554;12.068;2023-04-07T09:22:56;25.73;;;13.98;;
53644;SDS011;39547;45.554;12.068;2023-04-07T09:29:00;27.40;;;13.15;;
53644;SDS011;39547;45.554;12.068;2023-04-07T09:35:07;23.65;;;11.88;;
53644;SDS011;39547;45.554;12.068;2023-04-07T09:47:14;29.25;;;14.45;;
53644;SDS011;39547;45.554;12.068;2023-04-07T09:53:16;25.58;;;12.80;;
53644;SDS011;39547;45.554;12.068;2023-04-07T09:59:19;21.85;;;11.32;;
53644;SDS011;39547;45.554;12.068;2023-04-07T10:05:21;27.50;;;15.05;;
53644;SDS011;39547;45.554;12.068;2023-04-07T10:11:23;23.83;;;11.38;;
53644;SDS011;39547;45.554;12.068;2023-04-07T10:17:24;22.48;;;11.40;;
53644;SDS011;39547;45.554;12.068;2023-04-07T10:23:31;20.03;;;10.23;;
53644;SDS011;39547;45.554;12.068;2023-04-07T10:29:54;28.42;;;15.02;;
53644;SDS011;39547;45.554;12.068;2023-04-07T10:36:07;24.58;;;13.10;;
53644;SDS011;39547;45.554;12.068;2023-04-07T10:48:41;23.15;;;12.55;;
53644;SDS011;39547;45.554;12.068;2023-04-07T10:54:42;24.20;;;12.55;;
53644;SDS011;39547;45.554;12.068;2023-04-07T11:07:00;28.27;;;15.73;;
53644;SDS011;39547;45.554;12.068;2023-04-07T11:13:04;27.20;;;14.77;;
53644;SDS011;39547;45.554;12.068;2023-04-07T11:25:20;24.20;;;13.15;;
53644;SDS011;39547;45.554;12.068;2023-04-07T11:37:28;26.20;;;13.60;;
53644;SDS011;39547;45.554;12.068;2023-04-07T11:43:29;27.80;;;14.85;;
53644;SDS011;39547;45.554;12.068;2023-04-07T11:49:31;22.08;;;10.60;;
53644;SDS011;39547;45.554;12.068;2023-04-07T11:55:32;25.08;;;12.63;;
53644;SDS011;39547;45.554;12.068;2023-04-07T12:01:38;22.48;;;11.55;;
53644;SDS011;39547;45.554;12.068;2023-04-07T12:07:51;19.38;;;9.63;;
53644;SDS011;39547;45.554;12.068;2023-04-07T12:13:54;23.98;;;11.93;;
53644;SDS011;39547;45.554;12.068;2023-04-07T12:19:56;23.63;;;11.68;;
53644;SDS011;39547;45.554;12.068;2023-04-07T12:25:58;19.35;;;9.45;;
53644;SDS011;39547;45.554;12.068;2023-04-07T12:31:59;22.20;;;10.38;;
53644;SDS011;39547;45.554;12.068;2023-04-07T12:38:01;20.42;;;9.98;;
53644;SDS011;39547;45.554;12.068;2023-04-07T12:44:03;22.35;;;10.65;;
53644;SDS011;39547;45.554;12.068;2023-04-07T12:50:04;23.90;;;12.05;;
53644;SDS011;39547;45.554;12.068;2023-04-07T12:56:06;22.05;;;10.48;;
53644;SDS011;39547;45.554;12.068;2023-04-07T13:02:08;20.25;;;9.95;;
53644;SDS011;39547;45.554;12.068;2023-04-07T13:08:09;21.73;;;10.25;;
53644;SDS011;39547;45.554;12.068;2023-04-07T13:14:11;22.27;;;11.13;;
53644;SDS011;39547;45.554;12.068;2023-04-07T13:20:13;22.30;;;11.48;;
53644;SDS011;39547;45.554;12.068;2023-04-07T13:26:14;23.67;;;11.20;;
53644;SDS011;39547;45.554;12.068;2023-04-07T13:32:16;23.20;;;10.60;;
53644;SDS011;39547;45.554;12.068;2023-04-07T13:38:18;21.42;;;10.00;;
53644;SDS011;39547;45.554;12.068;2023-04-07T13:44:19;22.75;;;11.23;;
53644;SDS011;39547;45.554;12.068;2023-04-07T13:50:21;19.25;;;8.88;;
53644;SDS011;39547;45.554;12.068;2023-04-07T13:56:23;20.83;;;9.48;;
53644;SDS011;39547;45.554;12.068;2023-04-07T14:02:25;20.88;;;9.38;;
53644;SDS011;39547;45.554;12.068;2023-04-07T14:08:31;20.20;;;8.73;;
53644;SDS011;39547;45.554;12.068;2023-04-07T14:14:33;18.75;;;8.43;;
53644;SDS011;39547;45.554;12.068;2023-04-07T14:20:36;21.90;;;8.75;;
53644;SDS011;39547;45.554;12.068;2023-04-07T14:26:38;20.58;;;7.82;;
53644;SDS011;39547;45.554;12.068;2023-04-07T14:32:39;19.38;;;8.10;;
53644;SDS011;39547;45.554;12.068;2023-04-07T14:38:41;19.27;;;8.57;;
53644;SDS011;39547;45.554;12.068;2023-04-07T14:44:44;18.35;;;8.23;;
53644;SDS011;39547;45.554;12.068;2023-04-07T14:50:45;17.17;;;8.52;;
53644;SDS011;39547;45.554;12.068;2023-04-07T14:56:47;20.13;;;9.02;;
53644;SDS011;39547;45.554;12.068;2023-04-07T15:02:49;18.42;;;7.93;;
53644;SDS011;39547;45.554;12.068;2023-04-07T15:08:50;18.05;;;8.40;;
53644;SDS011;39547;45.554;12.068;2023-04-07T15:14:52;21.75;;;10.13;;
53644;SDS011;39547;45.554;12.068;2023-04-07T15:20:54;18.42;;;7.80;;
53644;SDS011;39547;45.554;12.068;2023-04-07T15:26:56;16.85;;;7.45;;
53644;SDS011;39547;45.554;12.068;2023-04-07T15:32:58;17.33;;;7.25;;
53644;SDS011;39547;45.554;12.068;2023-04-07T15:39:03;18.08;;;7.30;;
53644;SDS011;39547;45.554;12.068;2023-04-07T15:45:05;20.30;;;8.13;;
53644;SDS011;39547;45.554;12.068;2023-04-07T15:51:07;17.45;;;6.63;;
53644;SDS011;39547;45.554;12.068;2023-04-07T15:57:09;15.90;;;6.05;;
53644;SDS011;39547;45.554;12.068;2023-04-07T16:03:11;18.05;;;7.00;;
53644;SDS011;39547;45.554;12.068;2023-04-07T16:09:12;17.23;;;6.43;;
53644;SDS011;39547;45.554;12.068;2023-04-07T16:15:14;13.85;;;5.65;;
53644;SDS011;39547;45.554;12.068;2023-04-07T16:21:16;15.15;;;6.03;;
53644;SDS011;39547;45.554;12.068;2023-04-07T16:27:18;20.30;;;8.40;;
53644;SDS011;39547;45.554;12.068;2023-04-07T16:33:19;19.33;;;8.63;;
53644;SDS011;39547;45.554;12.068;2023-04-07T16:39:21;17.85;;;7.85;;
53644;SDS011;39547;45.554;12.068;2023-04-07T16:45:22;18.88;;;8.45;;
53644;SDS011;39547;45.554;12.068;2023-04-07T16:51:24;17.48;;;7.57;;
53644;SDS011;39547;45.554;12.068;2023-04-07T16:57:28;16.67;;;7.33;;
53644;SDS011;39547;45.554;12.068;2023-04-07T17:03:29;18.15;;;8.30;;
53644;SDS011;39547;45.554;12.068;2023-04-07T17:09:31;16.92;;;7.53;;
53644;SDS011;39547;45.554;12.068;2023-04-07T17:15:36;17.73;;;7.75;;
53644;SDS011;39547;45.554;12.068;2023-04-07T17:21:38;19.52;;;9.00;;
53644;SDS011;39547;45.554;12.068;2023-04-07T17:27:39;15.77;;;6.50;;
53644;SDS011;39547;45.554;12.068;2023-04-07T17:33:40;18.60;;;9.32;;
53644;SDS011;39547;45.554;12.068;2023-04-07T17:39:42;17.98;;;9.05;;
53644;SDS011;39547;45.554;12.068;2023-04-07T17:45:44;18.92;;;9.35;;
53644;SDS011;39547;45.554;12.068;2023-04-07T17:51:45;18.20;;;8.68;;
53644;SDS011;39547;45.554;12.068;2023-04-07T17:57:48;17.95;;;8.50;;
53644;SDS011;39547;45.554;12.068;2023-04-07T18:03:51;16.83;;;8.00;;
53644;SDS011;39547;45.554;12.068;2023-04-07T18:09:53;17.63;;;7.93;;
53644;SDS011;39547;45.554;12.068;2023-04-07T18:15:56;17.50;;;7.65;;
53644;SDS011;39547;45.554;12.068;2023-04-07T18:21:57;18.70;;;8.77;;
53644;SDS011;39547;45.554;12.068;2023-04-07T18:28:00;15.93;;;7.57;;
53644;SDS011;39547;45.554;12.068;2023-04-07T18:34:02;17.98;;;9.13;;
53644;SDS011;39547;45.554;12.068;2023-04-07T18:40:03;17.55;;;8.25;;
53644;SDS011;39547;45.554;12.068;2023-04-07T18:46:05;18.40;;;8.25;;
53644;SDS011;39547;45.554;12.068;2023-04-07T18:52:07;18.38;;;7.75;;
53644;SDS011;39547;45.554;12.068;2023-04-07T18:58:08;16.83;;;8.75;;
53644;SDS011;39547;45.554;12.068;2023-04-07T19:04:11;15.93;;;7.32;;
53644;SDS011;39547;45.554;12.068;2023-04-07T19:10:12;18.52;;;8.65;;
53644;SDS011;39547;45.554;12.068;2023-04-07T19:16:14;19.30;;;9.45;;
53644;SDS011;39547;45.554;12.068;2023-04-07T19:22:15;18.90;;;9.48;;
53644;SDS011;39547;45.554;12.068;2023-04-07T19:28:17;19.77;;;10.70;;
53644;SDS011;39547;45.554;12.068;2023-04-07T19:34:18;19.77;;;10.30;;
53644;SDS011;39547;45.554;12.068;2023-04-07T19:40:20;21.95;;;10.00;;
53644;SDS011;39547;45.554;12.068;2023-04-07T19:46:23;19.35;;;10.00;;
53644;SDS011;39547;45.554;12.068;2023-04-07T19:52:24;18.13;;;9.52;;
53644;SDS011;39547;45.554;12.068;2023-04-07T19:58:26;23.27;;;11.63;;
53644;SDS011;39547;45.554;12.068;2023-04-07T20:04:28;20.67;;;10.90;;
53644;SDS011;39547;45.554;12.068;2023-04-07T20:10:29;19.75;;;10.73;;
53644;SDS011;39547;45.554;12.068;2023-04-07T20:16:31;20.40;;;11.07;;
53644;SDS011;39547;45.554;12.068;2023-04-07T20:22:32;18.90;;;10.32;;
53644;SDS011;39547;45.554;12.068;2023-04-07T20:28:34;20.45;;;10.98;;
53644;SDS011;39547;45.554;12.068;2023-04-07T20:34:36;20.42;;;10.98;;
53644;SDS011;39547;45.554;12.068;2023-04-07T20:40:37;19.48;;;10.43;;
53644;SDS011;39547;45.554;12.068;2023-04-07T20:46:39;22.77;;;12.35;;
53644;SDS011;39547;45.554;12.068;2023-04-07T20:52:41;21.75;;;11.80;;
53644;SDS011;39547;45.554;12.068;2023-04-07T20:58:43;25.38;;;13.70;;
53644;SDS011;39547;45.554;12.068;2023-04-07T21:04:45;22.02;;;12.13;;
53644;SDS011;39547;45.554;12.068;2023-04-07T21:10:46;27.80;;;15.48;;
53644;SDS011;39547;45.554;12.068;2023-04-07T21:16:48;22.65;;;13.30;;
53644;SDS011;39547;45.554;12.068;2023-04-07T21:22:49;25.98;;;14.27;;
53644;SDS011;39547;45.554;12.068;2023-04-07T21:28:51;23.35;;;13.57;;
53644;SDS011;39547;45.554;12.068;2023-04-07T21:34:52;30.35;;;17.77;;
53644;SDS011;39547;45.554;12.068;2023-04-07T21:40:54;37.53;;;21.15;;
53644;SDS011;39547;45.554;12.068;2023-04-07T21:46:57;31.30;;;18.77;;
53644;SDS011;39547;45.554;12.068;2023-04-07T21:52:58;29.67;;;16.50;;
53644;SDS011;39547;45.554;12.068;2023-04-07T21:59:00;30.25;;;16.88;;
53644;SDS011;39547;45.554;12.068;2023-04-07T22:05:03;32.40;;;17.55;;
53644;SDS011;39547;45.554;12.068;2023-04-07T22:11:06;30.77;;;17.15;;
53644;SDS011;39547;45.554;12.068;2023-04-07T22:17:08;31.35;;;17.42;;
53644;SDS011;39547;45.554;12.068;2023-04-07T22:23:10;27.52;;;15.98;;
53644;SDS011;39547;45.554;12.068;2023-04-07T22:29:11;28.48;;;17.40;;
53644;SDS011;39547;45.554;12.068;2023-04-07T22:35:13;35.42;;;20.75;;
53644;SDS011;39547;45.554;12.068;2023-04-07T22:41:14;34.75;;;19.77;;
53644;SDS011;39547;45.554;12.068;2023-04-07T22:47:16;36.08;;;21.23;;
53644;SDS011;39547;45.554;12.068;2023-04-07T22:53:18;35.92;;;23.20;;
53644;SDS011;39547;45.554;12.068;2023-04-07T22:59:19;38.55;;;23.13;;
53644;SDS011;39547;45.554;12.068;2023-04-07T23:05:21;34.05;;;20.42;;
53644;SDS011;39547;45.554;12.068;2023-04-07T23:11:22;31.90;;;18.30;;
53644;SDS011;39547;45.554;12.068;2023-04-07T23:17:24;29.17;;;16.48;;
53644;SDS011;39547;45.554;12.068;2023-04-07T23:23:26;30.27;;;17.50;;
53644;SDS011;39547;45.554;12.068;2023-04-07T23:29:28;30.35;;;16.77;;
53644;SDS011;39547;45.554;12.068;2023-04-07T23:35:30;28.95;;;16.13;;
53644;SDS011;39547;45.554;12.068;2023-04-07T23:41:32;34.30;;;19.83;;
53644;SDS011;39547;45.554;12.068;2023-04-07T23:47:33;32.58;;;19.05;;
53644;SDS011;39547;45.554;12.068;2023-04-07T23:53:35;34.15;;;18.98;;
53644;SDS011;39547;45.554;12.068;2023-04-07T23:59:36;33.97;;;18.08;;
